Chatsworth, New Jersey
Current Conditions -  °F | °C
As of 2:58 AM on Tuesday 21 Oct 2014 (Local Time) from KWRI Reporting Station
Overcast Overcast  
Wind Chill: 48°   Ceiling: 12000
Heat Index: 48°   Visibility: 10mi
Dew Point: 45°   Wind: 0mph
Humidity: 90%   Direction: NA
Pressure: 29.9"   Gusts: NA
Location:  39.82°N, 74.53°W
Report Text: KWRI 210658Z AUTO 00000KT 10SM OVC120 09/07 A2990 RMK AO2 SLP128 T00880073
Loading
Personal Weather Stations






























Interactive Weather Map
Tropical Storm Tracking
New forecast layout! Learn more

10-Day Weather Forecast

Advertisements
Track Severe Weather on mobile